sensor_id;sensor_type;location;lat;lon;timestamp;temperature;humidity
30174;DHT22;16985;50.814;8.530;2022-12-18T00:01:28;-9.50;99.90
30174;DHT22;16985;50.814;8.530;2022-12-18T00:03:57;-9.50;99.90
30174;DHT22;16985;50.814;8.530;2022-12-18T00:06:24;-9.50;99.90
30174;DHT22;16985;50.814;8.530;2022-12-18T00:08:51;-9.50;99.90
30174;DHT22;16985;50.814;8.530;2022-12-18T00:11:19;-9.50;99.90
30174;DHT22;16985;50.814;8.530;2022-12-18T00:13:47;-9.60;99.90
30174;DHT22;16985;50.814;8.530;2022-12-18T00:16:18;-9.60;99.90
30174;DHT22;16985;50.814;8.530;2022-12-18T00:18:50;-9.60;99.90
30174;DHT22;16985;50.814;8.530;2022-12-18T00:21:21;-9.70;99.90
30174;DHT22;16985;50.814;8.530;2022-12-18T00:23:49;-9.60;99.90
30174;DHT22;16985;50.814;8.530;2022-12-18T00:26:21;-9.70;99.90
30174;DHT22;16985;50.814;8.530;2022-12-18T00:28:52;-9.80;99.90
30174;DHT22;16985;50.814;8.530;2022-12-18T00:31:20;-9.80;99.90
30174;DHT22;16985;50.814;8.530;2022-12-18T00:33:47;-9.80;99.90
30174;DHT22;16985;50.814;8.530;2022-12-18T00:36:16;-9.80;99.90
30174;DHT22;16985;50.814;8.530;2022-12-18T00:38:44;-9.80;99.90
30174;DHT22;16985;50.814;8.530;2022-12-18T00:41:13;-9.80;99.90
30174;DHT22;16985;50.814;8.530;2022-12-18T00:43:59;-9.90;99.90
30174;DHT22;16985;50.814;8.530;2022-12-18T00:46:25;-9.90;99.90
30174;DHT22;16985;50.814;8.530;2022-12-18T00:48:51;-9.90;99.90
30174;DHT22;16985;50.814;8.530;2022-12-18T00:51:17;-9.90;99.90
30174;DHT22;16985;50.814;8.530;2022-12-18T00:53:43;-9.90;99.90
30174;DHT22;16985;50.814;8.530;2022-12-18T00:56:09;-9.90;99.90
30174;DHT22;16985;50.814;8.530;2022-12-18T00:58:35;-9.80;99.90
30174;DHT22;16985;50.814;8.530;2022-12-18T01:01:04;-9.70;99.90
30174;DHT22;16985;50.814;8.530;2022-12-18T01:03:33;-9.80;99.90
30174;DHT22;16985;50.814;8.530;2022-12-18T01:05:59;-9.90;99.90
30174;DHT22;16985;50.814;8.530;2022-12-18T01:08:25;-9.90;99.90
30174;DHT22;16985;50.814;8.530;2022-12-18T01:10:51;-10.00;99.90
30174;DHT22;16985;50.814;8.530;2022-12-18T01:13:16;-10.00;99.90
30174;DHT22;16985;50.814;8.530;2022-12-18T01:15:49;-10.00;99.90
30174;DHT22;16985;50.814;8.530;2022-12-18T01:18:16;-10.00;99.90
30174;DHT22;16985;50.814;8.530;2022-12-18T01:20:42;-10.00;99.90
30174;DHT22;16985;50.814;8.530;2022-12-18T01:23:07;-10.10;99.90
30174;DHT22;16985;50.814;8.530;2022-12-18T01:25:36;-10.00;99.90
30174;DHT22;16985;50.814;8.530;2022-12-18T01:28:02;-10.10;99.90
30174;DHT22;16985;50.814;8.530;2022-12-18T01:30:28;-10.10;99.90
30174;DHT22;16985;50.814;8.530;2022-12-18T01:32:54;-10.10;99.90
30174;DHT22;16985;50.814;8.530;2022-12-18T01:35:20;-10.10;99.90
30174;DHT22;16985;50.814;8.530;2022-12-18T01:37:46;-10.10;99.90
30174;DHT22;16985;50.814;8.530;2022-12-18T01:40:12;-10.20;99.90
30174;DHT22;16985;50.814;8.530;2022-12-18T01:42:38;-10.20;99.90
30174;DHT22;16985;50.814;8.530;2022-12-18T01:45:26;-10.30;99.90
30174;DHT22;16985;50.814;8.530;2022-12-18T01:48:02;-10.30;99.90
30174;DHT22;16985;50.814;8.530;2022-12-18T01:50:40;-10.30;99.90
30174;DHT22;16985;50.814;8.530;2022-12-18T01:55:52;-10.30;99.90
30174;DHT22;16985;50.814;8.530;2022-12-18T01:58:24;-10.20;99.90
30174;DHT22;16985;50.814;8.530;2022-12-18T02:00:59;-10.20;99.90
30174;DHT22;16985;50.814;8.530;2022-12-18T02:03:24;-10.20;99.90
30174;DHT22;16985;50.814;8.530;2022-12-18T02:08:55;-10.20;99.90
30174;DHT22;16985;50.814;8.530;2022-12-18T02:11:43;-10.20;99.90
30174;DHT22;16985;50.814;8.530;2022-12-18T02:14:29;-10.30;99.90
30174;DHT22;16985;50.814;8.530;2022-12-18T02:17:18;-10.30;99.90
30174;DHT22;16985;50.814;8.530;2022-12-18T02:28:21;-10.40;99.90
30174;DHT22;16985;50.814;8.530;2022-12-18T02:30:53;-10.40;99.90
30174;DHT22;16985;50.814;8.530;2022-12-18T02:33:23;-10.40;99.90
30174;DHT22;16985;50.814;8.530;2022-12-18T02:35:53;-10.40;99.90
30174;DHT22;16985;50.814;8.530;2022-12-18T02:38:19;-10.40;99.90
30174;DHT22;16985;50.814;8.530;2022-12-18T02:40:49;-10.50;99.90
30174;DHT22;16985;50.814;8.530;2022-12-18T02:43:17;-10.40;99.90
30174;DHT22;16985;50.814;8.530;2022-12-18T02:45:53;-10.40;99.90
30174;DHT22;16985;50.814;8.530;2022-12-18T02:48:31;-10.30;99.90
30174;DHT22;16985;50.814;8.530;2022-12-18T02:53:59;-10.40;99.90
30174;DHT22;16985;50.814;8.530;2022-12-18T02:56:38;-10.50;99.90
30174;DHT22;16985;50.814;8.530;2022-12-18T02:59:17;-10.50;99.90
30174;DHT22;16985;50.814;8.530;2022-12-18T03:02:09;-10.50;99.90
30174;DHT22;16985;50.814;8.530;2022-12-18T03:04:56;-10.60;99.90
30174;DHT22;16985;50.814;8.530;2022-12-18T03:07:40;-10.60;99.90
30174;DHT22;16985;50.814;8.530;2022-12-18T03:10:14;-10.60;99.90
30174;DHT22;16985;50.814;8.530;2022-12-18T03:12:54;-10.60;99.90
30174;DHT22;16985;50.814;8.530;2022-12-18T03:15:35;-10.50;99.90
30174;DHT22;16985;50.814;8.530;2022-12-18T03:18:19;-10.50;99.90
30174;DHT22;16985;50.814;8.530;2022-12-18T03:20:50;-10.50;99.90
30174;DHT22;16985;50.814;8.530;2022-12-18T03:23:24;-10.60;99.90
30174;DHT22;16985;50.814;8.530;2022-12-18T03:25:55;-10.60;99.90
30174;DHT22;16985;50.814;8.530;2022-12-18T03:28:28;-10.60;99.90
30174;DHT22;16985;50.814;8.530;2022-12-18T03:31:00;-10.70;99.90
30174;DHT22;16985;50.814;8.530;2022-12-18T03:34:12;-10.70;99.90
30174;DHT22;16985;50.814;8.530;2022-12-18T03:36:43;-10.70;99.90
30174;DHT22;16985;50.814;8.530;2022-12-18T03:39:10;-10.70;99.90
30174;DHT22;16985;50.814;8.530;2022-12-18T03:41:44;-10.70;99.90
30174;DHT22;16985;50.814;8.530;2022-12-18T03:44:35;-10.60;99.90
30174;DHT22;16985;50.814;8.530;2022-12-18T03:47:08;-10.60;99.90
30174;DHT22;16985;50.814;8.530;2022-12-18T03:52:26;-10.60;99.90
30174;DHT22;16985;50.814;8.530;2022-12-18T03:54:57;-10.70;99.90
30174;DHT22;16985;50.814;8.530;2022-12-18T03:57:26;-10.70;99.90
30174;DHT22;16985;50.814;8.530;2022-12-18T03:59:59;-10.70;99.90
30174;DHT22;16985;50.814;8.530;2022-12-18T04:02:46;-10.70;99.90
30174;DHT22;16985;50.814;8.530;2022-12-18T04:05:22;-10.80;99.90
30174;DHT22;16985;50.814;8.530;2022-12-18T04:07:51;-10.80;99.90
30174;DHT22;16985;50.814;8.530;2022-12-18T04:10:18;-10.90;99.90
30174;DHT22;16985;50.814;8.530;2022-12-18T04:12:44;-10.90;99.90
30174;DHT22;16985;50.814;8.530;2022-12-18T04:15:12;-10.90;99.90
30174;DHT22;16985;50.814;8.530;2022-12-18T04:17:42;-10.90;99.90
30174;DHT22;16985;50.814;8.530;2022-12-18T04:20:12;-10.80;99.90
30174;DHT22;16985;50.814;8.530;2022-12-18T04:22:42;-10.80;99.90
30174;DHT22;16985;50.814;8.530;2022-12-18T04:25:08;-10.80;99.90
30174;DHT22;16985;50.814;8.530;2022-12-18T04:27:39;-10.90;99.90
30174;DHT22;16985;50.814;8.530;2022-12-18T04:30:05;-10.90;99.90
30174;DHT22;16985;50.814;8.530;2022-12-18T04:32:33;-10.90;99.90
30174;DHT22;16985;50.814;8.530;2022-12-18T04:35:00;-10.90;99.90
30174;DHT22;16985;50.814;8.530;2022-12-18T04:37:25;-10.90;99.90
30174;DHT22;16985;50.814;8.530;2022-12-18T04:39:51;-10.90;99.90
30174;DHT22;16985;50.814;8.530;2022-12-18T04:42:24;-10.90;99.90
30174;DHT22;16985;50.814;8.530;2022-12-18T04:44:50;-10.90;99.90
30174;DHT22;16985;50.814;8.530;2022-12-18T04:47:16;-10.90;99.90
30174;DHT22;16985;50.814;8.530;2022-12-18T04:49:42;-10.90;99.90
30174;DHT22;16985;50.814;8.530;2022-12-18T04:52:07;-10.90;99.90
30174;DHT22;16985;50.814;8.530;2022-12-18T04:54:33;-11.00;99.90
30174;DHT22;16985;50.814;8.530;2022-12-18T04:56:59;-11.00;99.90
30174;DHT22;16985;50.814;8.530;2022-12-18T04:59:25;-11.00;99.90
30174;DHT22;16985;50.814;8.530;2022-12-18T05:01:51;-11.00;99.90
30174;DHT22;16985;50.814;8.530;2022-12-18T05:04:17;-11.00;99.90
30174;DHT22;16985;50.814;8.530;2022-12-18T05:06:43;-11.00;99.90
30174;DHT22;16985;50.814;8.530;2022-12-18T05:09:08;-11.10;99.90
30174;DHT22;16985;50.814;8.530;2022-12-18T05:11:35;-11.10;99.90
30174;DHT22;16985;50.814;8.530;2022-12-18T05:14:01;-11.10;99.90
30174;DHT22;16985;50.814;8.530;2022-12-18T05:16:27;-11.10;99.90
30174;DHT22;16985;50.814;8.530;2022-12-18T05:18:53;-11.10;99.90
30174;DHT22;16985;50.814;8.530;2022-12-18T05:21:19;-11.10;99.90
30174;DHT22;16985;50.814;8.530;2022-12-18T05:23:45;-11.00;99.90
30174;DHT22;16985;50.814;8.530;2022-12-18T05:26:15;-11.00;99.90
30174;DHT22;16985;50.814;8.530;2022-12-18T05:28:42;-11.00;99.90
30174;DHT22;16985;50.814;8.530;2022-12-18T05:31:08;-11.00;99.90
30174;DHT22;16985;50.814;8.530;2022-12-18T05:33:34;-11.00;99.90
30174;DHT22;16985;50.814;8.530;2022-12-18T05:36:02;-11.10;99.90
30174;DHT22;16985;50.814;8.530;2022-12-18T05:38:31;-11.10;99.90
30174;DHT22;16985;50.814;8.530;2022-12-18T05:40:58;-11.10;99.90
30174;DHT22;16985;50.814;8.530;2022-12-18T05:43:25;-11.20;99.90
30174;DHT22;16985;50.814;8.530;2022-12-18T05:45:52;-11.20;99.90
30174;DHT22;16985;50.814;8.530;2022-12-18T05:48:19;-11.20;99.90
30174;DHT22;16985;50.814;8.530;2022-12-18T05:50:46;-11.20;99.90
30174;DHT22;16985;50.814;8.530;2022-12-18T05:53:17;-11.20;99.90
30174;DHT22;16985;50.814;8.530;2022-12-18T05:55:45;-11.20;99.90
30174;DHT22;16985;50.814;8.530;2022-12-18T05:58:12;-11.20;99.90
30174;DHT22;16985;50.814;8.530;2022-12-18T06:00:43;-11.20;99.90
30174;DHT22;16985;50.814;8.530;2022-12-18T06:03:12;-11.20;99.90
30174;DHT22;16985;50.814;8.530;2022-12-18T06:05:41;-11.20;99.90
30174;DHT22;16985;50.814;8.530;2022-12-18T06:08:09;-11.20;99.90
30174;DHT22;16985;50.814;8.530;2022-12-18T06:10:35;-11.20;99.90
30174;DHT22;16985;50.814;8.530;2022-12-18T06:13:01;-11.30;99.90
30174;DHT22;16985;50.814;8.530;2022-12-18T06:15:27;-11.30;99.90
30174;DHT22;16985;50.814;8.530;2022-12-18T06:17:53;-11.10;99.90
30174;DHT22;16985;50.814;8.530;2022-12-18T06:20:19;-11.30;99.90
30174;DHT22;16985;50.814;8.530;2022-12-18T06:22:44;-11.30;99.90
30174;DHT22;16985;50.814;8.530;2022-12-18T06:25:10;-11.40;99.90
30174;DHT22;16985;50.814;8.530;2022-12-18T06:27:39;-11.40;99.90
30174;DHT22;16985;50.814;8.530;2022-12-18T06:30:05;-11.40;99.90
30174;DHT22;16985;50.814;8.530;2022-12-18T06:32:32;-11.40;99.90
30174;DHT22;16985;50.814;8.530;2022-12-18T06:34:57;-11.40;99.90
30174;DHT22;16985;50.814;8.530;2022-12-18T06:37:23;-11.40;99.90
30174;DHT22;16985;50.814;8.530;2022-12-18T06:39:53;-11.40;99.90
30174;DHT22;16985;50.814;8.530;2022-12-18T06:42:19;-11.30;99.90
30174;DHT22;16985;50.814;8.530;2022-12-18T06:44:44;-11.40;99.90
30174;DHT22;16985;50.814;8.530;2022-12-18T06:47:10;-11.40;99.90
30174;DHT22;16985;50.814;8.530;2022-12-18T06:49:36;-11.40;99.90
30174;DHT22;16985;50.814;8.530;2022-12-18T06:52:02;-11.40;99.90
30174;DHT22;16985;50.814;8.530;2022-12-18T06:54:28;-11.40;99.90
30174;DHT22;16985;50.814;8.530;2022-12-18T06:56:53;-11.40;99.90
30174;DHT22;16985;50.814;8.530;2022-12-18T06:59:19;-11.40;99.90
30174;DHT22;16985;50.814;8.530;2022-12-18T07:01:45;-11.40;99.90
30174;DHT22;16985;50.814;8.530;2022-12-18T07:04:11;-11.40;99.90
30174;DHT22;16985;50.814;8.530;2022-12-18T07:06:37;-11.40;99.90
30174;DHT22;16985;50.814;8.530;2022-12-18T07:09:03;-11.40;99.90
30174;DHT22;16985;50.814;8.530;2022-12-18T07:11:28;-11.40;99.90
30174;DHT22;16985;50.814;8.530;2022-12-18T07:13:54;-11.50;99.90
30174;DHT22;16985;50.814;8.530;2022-12-18T07:16:21;-11.40;99.90
30174;DHT22;16985;50.814;8.530;2022-12-18T07:18:47;-11.50;99.90
30174;DHT22;16985;50.814;8.530;2022-12-18T07:21:18;-11.50;99.90
30174;DHT22;16985;50.814;8.530;2022-12-18T07:23:44;-11.50;99.90
30174;DHT22;16985;50.814;8.530;2022-12-18T07:26:14;-11.50;99.90
30174;DHT22;16985;50.814;8.530;2022-12-18T07:28:42;-11.50;99.90
30174;DHT22;16985;50.814;8.530;2022-12-18T07:31:11;-11.50;99.90
30174;DHT22;16985;50.814;8.530;2022-12-18T07:33:43;-11.50;99.90
30174;DHT22;16985;50.814;8.530;2022-12-18T07:36:10;-11.50;99.90
30174;DHT22;16985;50.814;8.530;2022-12-18T07:38:36;-11.40;99.90
30174;DHT22;16985;50.814;8.530;2022-12-18T07:41:04;-11.40;99.90
30174;DHT22;16985;50.814;8.530;2022-12-18T07:43:32;-11.40;99.90
30174;DHT22;16985;50.814;8.530;2022-12-18T07:45:58;-11.30;99.90
30174;DHT22;16985;50.814;8.530;2022-12-18T07:48:24;-11.30;99.90
30174;DHT22;16985;50.814;8.530;2022-12-18T07:50:50;-11.30;99.90
30174;DHT22;16985;50.814;8.530;2022-12-18T07:53:15;-11.40;99.90
30174;DHT22;16985;50.814;8.530;2022-12-18T07:55:41;-11.40;99.90
30174;DHT22;16985;50.814;8.530;2022-12-18T07:58:08;-11.40;99.90
30174;DHT22;16985;50.814;8.530;2022-12-18T08:00:34;-11.40;99.90
30174;DHT22;16985;50.814;8.530;2022-12-18T08:03:00;-11.50;99.90
30174;DHT22;16985;50.814;8.530;2022-12-18T08:05:27;-11.50;99.90
30174;DHT22;16985;50.814;8.530;2022-12-18T08:07:54;-11.50;99.90
30174;DHT22;16985;50.814;8.530;2022-12-18T08:10:21;-11.50;99.90
30174;DHT22;16985;50.814;8.530;2022-12-18T08:12:50;-11.40;99.90
30174;DHT22;16985;50.814;8.530;2022-12-18T08:15:17;-11.40;99.90
30174;DHT22;16985;50.814;8.530;2022-12-18T08:17:43;-11.40;99.90
30174;DHT22;16985;50.814;8.530;2022-12-18T08:20:09;-11.40;99.90
30174;DHT22;16985;50.814;8.530;2022-12-18T08:22:35;-11.30;99.90
30174;DHT22;16985;50.814;8.530;2022-12-18T08:25:02;-11.30;99.90
30174;DHT22;16985;50.814;8.530;2022-12-18T08:27:29;-11.30;99.90
30174;DHT22;16985;50.814;8.530;2022-12-18T08:29:55;-11.30;99.90
30174;DHT22;16985;50.814;8.530;2022-12-18T08:32:21;-11.30;99.90
30174;DHT22;16985;50.814;8.530;2022-12-18T08:34:47;-11.20;99.90
30174;DHT22;16985;50.814;8.530;2022-12-18T08:37:13;-11.20;99.90
30174;DHT22;16985;50.814;8.530;2022-12-18T08:39:38;-11.20;99.90
30174;DHT22;16985;50.814;8.530;2022-12-18T08:42:04;-11.10;99.90
30174;DHT22;16985;50.814;8.530;2022-12-18T08:44:49;-11.10;99.90
30174;DHT22;16985;50.814;8.530;2022-12-18T08:47:15;-11.10;99.90
30174;DHT22;16985;50.814;8.530;2022-12-18T08:49:40;-11.10;99.90
30174;DHT22;16985;50.814;8.530;2022-12-18T08:52:06;-11.00;99.90
30174;DHT22;16985;50.814;8.530;2022-12-18T08:54:32;-11.00;99.90
30174;DHT22;16985;50.814;8.530;2022-12-18T08:56:58;-10.90;99.90
30174;DHT22;16985;50.814;8.530;2022-12-18T08:59:24;-10.90;99.90
30174;DHT22;16985;50.814;8.530;2022-12-18T09:01:50;-10.90;99.90
30174;DHT22;16985;50.814;8.530;2022-12-18T09:04:15;-10.80;99.90
30174;DHT22;16985;50.814;8.530;2022-12-18T09:06:41;-10.70;99.90
30174;DHT22;16985;50.814;8.530;2022-12-18T09:09:09;-10.70;99.90
30174;DHT22;16985;50.814;8.530;2022-12-18T09:11:35;-10.70;99.90
30174;DHT22;16985;50.814;8.530;2022-12-18T09:14:01;-10.60;99.90
30174;DHT22;16985;50.814;8.530;2022-12-18T09:16:28;-10.50;99.90
30174;DHT22;16985;50.814;8.530;2022-12-18T09:18:55;-10.50;99.90
30174;DHT22;16985;50.814;8.530;2022-12-18T09:21:27;-10.40;99.90
30174;DHT22;16985;50.814;8.530;2022-12-18T09:23:55;-10.40;99.90
30174;DHT22;16985;50.814;8.530;2022-12-18T09:26:22;-10.30;99.90
30174;DHT22;16985;50.814;8.530;2022-12-18T09:28:49;-10.30;99.90
30174;DHT22;16985;50.814;8.530;2022-12-18T09:31:17;-10.20;99.90
30174;DHT22;16985;50.814;8.530;2022-12-18T09:33:45;-10.20;99.90
30174;DHT22;16985;50.814;8.530;2022-12-18T09:36:13;-10.10;99.90
30174;DHT22;16985;50.814;8.530;2022-12-18T09:38:40;-10.10;99.90
30174;DHT22;16985;50.814;8.530;2022-12-18T09:43:55;-9.90;99.90
30174;DHT22;16985;50.814;8.530;2022-12-18T09:46:28;-9.80;99.90
30174;DHT22;16985;50.814;8.530;2022-12-18T09:49:00;-9.80;99.90
30174;DHT22;16985;50.814;8.530;2022-12-18T09:51:32;-9.70;99.90
30174;DHT22;16985;50.814;8.530;2022-12-18T09:54:10;-9.60;99.90
30174;DHT22;16985;50.814;8.530;2022-12-18T09:56:41;-9.60;99.90
30174;DHT22;16985;50.814;8.530;2022-12-18T09:59:18;-9.50;99.90
30174;DHT22;16985;50.814;8.530;2022-12-18T10:01:47;-9.30;99.90
30174;DHT22;16985;50.814;8.530;2022-12-18T10:04:12;-9.30;99.90
30174;DHT22;16985;50.814;8.530;2022-12-18T10:06:40;-9.20;99.90
30174;DHT22;16985;50.814;8.530;2022-12-18T10:09:30;-9.10;99.90
30174;DHT22;16985;50.814;8.530;2022-12-18T10:12:47;-9.00;99.90
30174;DHT22;16985;50.814;8.530;2022-12-18T10:21:32;-8.70;99.90
30174;DHT22;16985;50.814;8.530;2022-12-18T10:24:24;-8.50;99.90
30174;DHT22;16985;50.814;8.530;2022-12-18T10:27:06;-8.30;99.90
30174;DHT22;16985;50.814;8.530;2022-12-18T10:29:37;-8.20;99.90
30174;DHT22;16985;50.814;8.530;2022-12-18T10:32:03;-8.10;99.90
30174;DHT22;16985;50.814;8.530;2022-12-18T10:34:29;-7.90;99.90
30174;DHT22;16985;50.814;8.530;2022-12-18T10:36:56;-7.80;99.90
30174;DHT22;16985;50.814;8.530;2022-12-18T10:39:23;-7.70;99.90
30174;DHT22;16985;50.814;8.530;2022-12-18T10:41:51;-7.60;99.90
30174;DHT22;16985;50.814;8.530;2022-12-18T10:44:19;-7.50;99.90
30174;DHT22;16985;50.814;8.530;2022-12-18T10:46:49;-7.30;99.90
30174;DHT22;16985;50.814;8.530;2022-12-18T10:49:27;-7.20;99.90
30174;DHT22;16985;50.814;8.530;2022-12-18T10:52:18;-7.10;99.90
30174;DHT22;16985;50.814;8.530;2022-12-18T10:54:59;-6.90;99.90
30174;DHT22;16985;50.814;8.530;2022-12-18T10:57:39;-6.80;99.90
30174;DHT22;16985;50.814;8.530;2022-12-18T11:02:51;-6.50;99.90
30174;DHT22;16985;50.814;8.530;2022-12-18T11:05:24;-6.40;99.90
30174;DHT22;16985;50.814;8.530;2022-12-18T11:07:58;-6.30;99.90
30174;DHT22;16985;50.814;8.530;2022-12-18T11:10:36;-6.20;99.90
30174;DHT22;16985;50.814;8.530;2022-12-18T11:13:23;-6.00;99.90
30174;DHT22;16985;50.814;8.530;2022-12-18T11:15:50;-5.80;99.90
30174;DHT22;16985;50.814;8.530;2022-12-18T11:18:27;-5.70;99.90
30174;DHT22;16985;50.814;8.530;2022-12-18T11:21:00;-5.60;99.90
30174;DHT22;16985;50.814;8.530;2022-12-18T11:23:34;-5.50;99.90
30174;DHT22;16985;50.814;8.530;2022-12-18T11:26:03;-5.40;99.90
30174;DHT22;16985;50.814;8.530;2022-12-18T11:31:27;-5.20;99.90
30174;DHT22;16985;50.814;8.530;2022-12-18T11:36:49;-5.00;99.90
30174;DHT22;16985;50.814;8.530;2022-12-18T11:39:40;-4.90;99.90
30174;DHT22;16985;50.814;8.530;2022-12-18T11:44:58;-4.70;99.90
30174;DHT22;16985;50.814;8.530;2022-12-18T11:47:35;-4.70;99.90
30174;DHT22;16985;50.814;8.530;2022-12-18T11:50:18;-4.60;99.90
30174;DHT22;16985;50.814;8.530;2022-12-18T11:52:47;-4.50;99.90
30174;DHT22;16985;50.814;8.530;2022-12-18T11:55:16;-4.40;99.90
30174;DHT22;16985;50.814;8.530;2022-12-18T12:00:53;-4.30;99.90
30174;DHT22;16985;50.814;8.530;2022-12-18T12:12:01;-4.10;99.90
30174;DHT22;16985;50.814;8.530;2022-12-18T12:15:28;-4.10;99.90
30174;DHT22;16985;50.814;8.530;2022-12-18T12:21:26;-4.00;99.90
30174;DHT22;16985;50.814;8.530;2022-12-18T12:30:22;-3.80;99.90
30174;DHT22;16985;50.814;8.530;2022-12-18T12:33:31;-3.80;99.90
30174;DHT22;16985;50.814;8.530;2022-12-18T12:39:11;-3.80;99.90
30174;DHT22;16985;50.814;8.530;2022-12-18T12:41:41;-3.80;99.90
30174;DHT22;16985;50.814;8.530;2022-12-18T12:44:40;-3.70;99.90
30174;DHT22;16985;50.814;8.530;2022-12-18T12:47:18;-3.70;99.90
30174;DHT22;16985;50.814;8.530;2022-12-18T12:49:47;-3.60;99.90
30174;DHT22;16985;50.814;8.530;2022-12-18T12:52:33;-3.60;99.90
30174;DHT22;16985;50.814;8.530;2022-12-18T12:55:02;-3.60;99.90
30174;DHT22;16985;50.814;8.530;2022-12-18T12:57:37;-3.60;99.90
30174;DHT22;16985;50.814;8.530;2022-12-18T13:00:25;-3.60;99.90
30174;DHT22;16985;50.814;8.530;2022-12-18T13:03:31;-3.60;99.90
30174;DHT22;16985;50.814;8.530;2022-12-18T13:08:58;-3.60;99.90
30174;DHT22;16985;50.814;8.530;2022-12-18T13:11:35;-3.60;99.90
30174;DHT22;16985;50.814;8.530;2022-12-18T13:20:10;-3.70;99.90
30174;DHT22;16985;50.814;8.530;2022-12-18T13:22:46;-3.70;99.90
30174;DHT22;16985;50.814;8.530;2022-12-18T13:25:36;-3.70;99.90
30174;DHT22;16985;50.814;8.530;2022-12-18T13:28:07;-3.70;99.90
30174;DHT22;16985;50.814;8.530;2022-12-18T13:38:33;-3.70;99.90
30174;DHT22;16985;50.814;8.530;2022-12-18T13:41:10;-3.70;99.90
30174;DHT22;16985;50.814;8.530;2022-12-18T13:44:12;-3.70;99.90
30174;DHT22;16985;50.814;8.530;2022-12-18T13:46:46;-3.70;99.90
30174;DHT22;16985;50.814;8.530;2022-12-18T13:51:44;-3.80;99.90
30174;DHT22;16985;50.814;8.530;2022-12-18T13:54:34;-3.80;99.90
30174;DHT22;16985;50.814;8.530;2022-12-18T13:57:02;-3.80;99.90
30174;DHT22;16985;50.814;8.530;2022-12-18T13:59:37;-3.80;99.90
30174;DHT22;16985;50.814;8.530;2022-12-18T14:02:17;-3.90;99.90
30174;DHT22;16985;50.814;8.530;2022-12-18T14:04:47;-3.90;99.90
30174;DHT22;16985;50.814;8.530;2022-12-18T14:07:16;-3.90;99.90
30174;DHT22;16985;50.814;8.530;2022-12-18T14:09:47;-3.90;99.90
30174;DHT22;16985;50.814;8.530;2022-12-18T14:15:01;-3.90;99.90
30174;DHT22;16985;50.814;8.530;2022-12-18T14:17:28;-3.90;99.90
30174;DHT22;16985;50.814;8.530;2022-12-18T14:19:54;-3.90;99.90
30174;DHT22;16985;50.814;8.530;2022-12-18T14:22:23;-4.00;99.90
30174;DHT22;16985;50.814;8.530;2022-12-18T14:25:14;-4.00;99.90
30174;DHT22;16985;50.814;8.530;2022-12-18T14:27:44;-4.00;99.90
30174;DHT22;16985;50.814;8.530;2022-12-18T14:32:59;-4.00;99.90
30174;DHT22;16985;50.814;8.530;2022-12-18T14:35:40;-4.00;99.90
30174;DHT22;16985;50.814;8.530;2022-12-18T14:38:38;-4.00;99.90
30174;DHT22;16985;50.814;8.530;2022-12-18T14:41:15;-4.00;99.90
30174;DHT22;16985;50.814;8.530;2022-12-18T14:43:44;-3.90;99.90
30174;DHT22;16985;50.814;8.530;2022-12-18T14:52:26;-4.10;99.90
30174;DHT22;16985;50.814;8.530;2022-12-18T14:54:53;-4.10;99.90
30174;DHT22;16985;50.814;8.530;2022-12-18T14:57:24;-4.20;99.90
30174;DHT22;16985;50.814;8.530;2022-12-18T14:59:52;-4.20;99.90
30174;DHT22;16985;50.814;8.530;2022-12-18T15:02:19;-4.20;99.90
30174;DHT22;16985;50.814;8.530;2022-12-18T15:04:48;-4.20;99.90
30174;DHT22;16985;50.814;8.530;2022-12-18T15:07:25;-4.20;99.90
30174;DHT22;16985;50.814;8.530;2022-12-18T15:10:13;-4.20;99.90
30174;DHT22;16985;50.814;8.530;2022-12-18T15:12:48;-4.30;99.90
30174;DHT22;16985;50.814;8.530;2022-12-18T15:25:57;-4.30;99.90
30174;DHT22;16985;50.814;8.530;2022-12-18T15:28:27;-4.30;99.90
30174;DHT22;16985;50.814;8.530;2022-12-18T15:31:03;-4.40;99.90
30174;DHT22;16985;50.814;8.530;2022-12-18T15:33:43;-4.40;99.90
30174;DHT22;16985;50.814;8.530;2022-12-18T15:36:16;-4.40;99.90
30174;DHT22;16985;50.814;8.530;2022-12-18T15:38:46;-4.40;99.90
30174;DHT22;16985;50.814;8.530;2022-12-18T15:41:17;-4.30;99.90
30174;DHT22;16985;50.814;8.530;2022-12-18T15:43:45;-4.40;99.90
30174;DHT22;16985;50.814;8.530;2022-12-18T15:46:14;-4.50;99.90
30174;DHT22;16985;50.814;8.530;2022-12-18T15:48:51;-4.50;99.90
30174;DHT22;16985;50.814;8.530;2022-12-18T15:51:24;-4.50;99.90
30174;DHT22;16985;50.814;8.530;2022-12-18T15:53:56;-4.50;99.90
30174;DHT22;16985;50.814;8.530;2022-12-18T15:56:29;-4.50;99.90
30174;DHT22;16985;50.814;8.530;2022-12-18T15:59:16;-4.50;99.90
30174;DHT22;16985;50.814;8.530;2022-12-18T16:01:45;-4.50;99.90
30174;DHT22;16985;50.814;8.530;2022-12-18T16:04:13;-4.50;99.90
30174;DHT22;16985;50.814;8.530;2022-12-18T16:06:41;-4.50;99.90
30174;DHT22;16985;50.814;8.530;2022-12-18T16:09:07;-4.50;99.90
30174;DHT22;16985;50.814;8.530;2022-12-18T16:11:35;-4.50;99.90
30174;DHT22;16985;50.814;8.530;2022-12-18T16:16:45;-4.50;99.90
30174;DHT22;16985;50.814;8.530;2022-12-18T16:19:12;-4.60;99.90
30174;DHT22;16985;50.814;8.530;2022-12-18T16:21:38;-4.50;99.90
30174;DHT22;16985;50.814;8.530;2022-12-18T16:24:04;-4.60;99.90
30174;DHT22;16985;50.814;8.530;2022-12-18T16:26:31;-4.50;99.90
30174;DHT22;16985;50.814;8.530;2022-12-18T16:28:56;-4.50;99.90
30174;DHT22;16985;50.814;8.530;2022-12-18T16:31:22;-4.50;99.90
30174;DHT22;16985;50.814;8.530;2022-12-18T16:33:48;-4.50;99.90
30174;DHT22;16985;50.814;8.530;2022-12-18T16:36:14;-4.50;99.90
30174;DHT22;16985;50.814;8.530;2022-12-18T16:38:40;-4.60;99.90
30174;DHT22;16985;50.814;8.530;2022-12-18T16:41:18;-4.60;99.90
30174;DHT22;16985;50.814;8.530;2022-12-18T16:43:56;-4.60;99.90
30174;DHT22;16985;50.814;8.530;2022-12-18T16:46:23;-4.60;99.90
30174;DHT22;16985;50.814;8.530;2022-12-18T16:48:48;-4.60;99.90
30174;DHT22;16985;50.814;8.530;2022-12-18T16:51:14;-4.50;99.90
30174;DHT22;16985;50.814;8.530;2022-12-18T16:53:40;-4.60;99.90
30174;DHT22;16985;50.814;8.530;2022-12-18T16:56:06;-4.50;99.90
30174;DHT22;16985;50.814;8.530;2022-12-18T16:58:32;-4.50;99.90
30174;DHT22;16985;50.814;8.530;2022-12-18T17:00:59;-4.50;99.90
30174;DHT22;16985;50.814;8.530;2022-12-18T17:03:25;-4.50;99.90
30174;DHT22;16985;50.814;8.530;2022-12-18T17:05:52;-4.50;99.90
30174;DHT22;16985;50.814;8.530;2022-12-18T17:08:17;-4.50;99.90
30174;DHT22;16985;50.814;8.530;2022-12-18T17:10:43;-4.50;99.90
30174;DHT22;16985;50.814;8.530;2022-12-18T17:13:10;-4.50;99.90
30174;DHT22;16985;50.814;8.530;2022-12-18T17:15:36;-4.50;99.90
30174;DHT22;16985;50.814;8.530;2022-12-18T17:18:02;-4.50;99.90
30174;DHT22;16985;50.814;8.530;2022-12-18T17:20:30;-4.50;99.90
30174;DHT22;16985;50.814;8.530;2022-12-18T17:22:58;-4.50;99.90
30174;DHT22;16985;50.814;8.530;2022-12-18T17:25:24;-4.50;99.90
30174;DHT22;16985;50.814;8.530;2022-12-18T17:27:50;-4.50;99.90
30174;DHT22;16985;50.814;8.530;2022-12-18T17:30:16;-4.50;99.90
30174;DHT22;16985;50.814;8.530;2022-12-18T17:32:42;-4.50;99.90
30174;DHT22;16985;50.814;8.530;2022-12-18T17:35:08;-4.50;99.90